Airfield :
LOGIN :

Register | Disclaimer

   EN    FR    IT 

 










Legend :    VFR   Marginal VFR   IFR   Intensive IFR   Very Intensive IFR
Visi :
Ceiling :
>= 8 km
>= 3000ft
5 to 8 km
1000 to 3000 ft
1500m to 5 km
500 to 1000 ft
800 to 1500m
200 to 500 ft
< 800m
< 200 ft
Symbols :   Thunderstorms  Fog  Heavy snow  Heavy precipitations  Wind > 20 kt
SIGMETs :     Misc.  Thunderstorms  Icing  Turbulence  Mountain Waves  Volcanic Ashes







- Airport Elevation : 226 ft
- IATA code : BEX


EGUB - RAF Benson

CURRENT METAR :
  • 160750Z AUTO 16010KT 9999 // BKN013/// SCT050/// 14/13 Q1015

EXPIRED METARs :
  • 160650Z AUTO 17009KT 9999 // FEW007/// OVC060/// 13/12 Q1015
  • 160550Z AUTO 17008KT 9999 // BKN006/// BKN070/// 12/11 Q1015

TAF TAF EGUB
Valid from the 15 at 15:00 until the 16 at 09:00 UTC


151330Z 1515/1609 18014KT 9999 BKN025
PROB40
TEMPO 1515/1519 4000 SHRA SCT015TCU
TEMPO 1600/1609 SCT010
ATIS : +44 1491-837766 (x7524)
No reported NOTAMs for that airfield.



MET'MAP, your aeronautical weather chart ! - Copyright ORBIFLY December 2007 - Disclaimer

ORBIFLY MET'MAP TEAM :

Programming & Development : Alexandra Zaïnal
Concept & Development : Baudouin d'Aumeries
Co-Development & Prog : Marc-Olivier Méhu
Technical & hardware support : Manuel Goepfert

Contact : metmap@orbifly.com




SOURCES & CREDITS :

   NOAA